sensor_id;sensor_type;location;lat;lon;timestamp;P1;durP1;ratioP1;P2;durP2;ratioP2
10811;SDS011;5458;51.496;7.334;2022-08-14T00:00:00;5.63;;;4.95;;
10811;SDS011;5458;51.496;7.334;2022-08-14T00:02:28;6.70;;;4.85;;
10811;SDS011;5458;51.496;7.334;2022-08-14T00:04:54;5.78;;;4.80;;
10811;SDS011;5458;51.496;7.334;2022-08-14T00:07:20;6.10;;;4.60;;
10811;SDS011;5458;51.496;7.334;2022-08-14T00:09:45;5.18;;;4.65;;
10811;SDS011;5458;51.496;7.334;2022-08-14T00:12:11;5.45;;;4.65;;
10811;SDS011;5458;51.496;7.334;2022-08-14T00:14:38;6.65;;;4.38;;
10811;SDS011;5458;51.496;7.334;2022-08-14T00:17:04;5.75;;;4.45;;
10811;SDS011;5458;51.496;7.334;2022-08-14T00:19:30;5.20;;;4.80;;
10811;SDS011;5458;51.496;7.334;2022-08-14T00:21:56;5.35;;;4.85;;
10811;SDS011;5458;51.496;7.334;2022-08-14T00:24:22;5.78;;;4.43;;
10811;SDS011;5458;51.496;7.334;2022-08-14T00:26:47;5.28;;;4.78;;
10811;SDS011;5458;51.496;7.334;2022-08-14T00:29:13;5.18;;;4.68;;
10811;SDS011;5458;51.496;7.334;2022-08-14T00:31:39;5.72;;;4.57;;
10811;SDS011;5458;51.496;7.334;2022-08-14T00:34:04;4.88;;;4.30;;
10811;SDS011;5458;51.496;7.334;2022-08-14T00:36:30;6.97;;;4.70;;
10811;SDS011;5458;51.496;7.334;2022-08-14T00:38:56;6.38;;;4.85;;
10811;SDS011;5458;51.496;7.334;2022-08-14T00:41:22;5.00;;;4.50;;
10811;SDS011;5458;51.496;7.334;2022-08-14T00:43:48;5.20;;;4.80;;
10811;SDS011;5458;51.496;7.334;2022-08-14T00:46:14;5.32;;;4.82;;
10811;SDS011;5458;51.496;7.334;2022-08-14T00:48:39;5.55;;;5.05;;
10811;SDS011;5458;51.496;7.334;2022-08-14T00:51:06;7.22;;;4.88;;
10811;SDS011;5458;51.496;7.334;2022-08-14T00:53:33;7.43;;;5.53;;
10811;SDS011;5458;51.496;7.334;2022-08-14T00:56:00;8.10;;;5.70;;
10811;SDS011;5458;51.496;7.334;2022-08-14T00:58:27;5.50;;;4.95;;
10811;SDS011;5458;51.496;7.334;2022-08-14T01:00:57;7.30;;;4.97;;
10811;SDS011;5458;51.496;7.334;2022-08-14T01:03:28;5.60;;;5.10;;
10811;SDS011;5458;51.496;7.334;2022-08-14T01:05:56;6.47;;;5.88;;
10811;SDS011;5458;51.496;7.334;2022-08-14T01:08:24;5.93;;;5.43;;
10811;SDS011;5458;51.496;7.334;2022-08-14T01:10:52;6.70;;;4.88;;
10811;SDS011;5458;51.496;7.334;2022-08-14T01:13:21;5.72;;;5.10;;
10811;SDS011;5458;51.496;7.334;2022-08-14T01:15:53;5.55;;;5.05;;
10811;SDS011;5458;51.496;7.334;2022-08-14T01:18:21;5.93;;;5.43;;
10811;SDS011;5458;51.496;7.334;2022-08-14T01:21:07;8.73;;;5.75;;
10811;SDS011;5458;51.496;7.334;2022-08-14T01:23:40;5.50;;;5.07;;
10811;SDS011;5458;51.496;7.334;2022-08-14T01:26:06;6.13;;;5.55;;
10811;SDS011;5458;51.496;7.334;2022-08-14T01:28:33;5.90;;;5.30;;
10811;SDS011;5458;51.496;7.334;2022-08-14T01:31:02;5.97;;;5.28;;
10811;SDS011;5458;51.496;7.334;2022-08-14T01:33:38;5.75;;;4.88;;
10811;SDS011;5458;51.496;7.334;2022-08-14T01:36:09;5.97;;;5.47;;
10811;SDS011;5458;51.496;7.334;2022-08-14T01:38:36;6.97;;;5.80;;
10811;SDS011;5458;51.496;7.334;2022-08-14T01:41:06;6.03;;;5.53;;
10811;SDS011;5458;51.496;7.334;2022-08-14T01:43:48;6.13;;;5.55;;
10811;SDS011;5458;51.496;7.334;2022-08-14T01:46:18;5.72;;;5.03;;
10811;SDS011;5458;51.496;7.334;2022-08-14T01:48:45;5.65;;;5.05;;
10811;SDS011;5458;51.496;7.334;2022-08-14T01:51:13;6.47;;;5.88;;
10811;SDS011;5458;51.496;7.334;2022-08-14T01:53:41;5.78;;;5.22;;
10811;SDS011;5458;51.496;7.334;2022-08-14T01:56:08;7.43;;;5.70;;
10811;SDS011;5458;51.496;7.334;2022-08-14T01:58:35;5.90;;;5.13;;
10811;SDS011;5458;51.496;7.334;2022-08-14T02:01:00;6.88;;;5.40;;
10811;SDS011;5458;51.496;7.334;2022-08-14T02:03:29;6.38;;;5.72;;
10811;SDS011;5458;51.496;7.334;2022-08-14T02:05:58;7.18;;;5.72;;
10811;SDS011;5458;51.496;7.334;2022-08-14T02:08:25;6.43;;;5.78;;
10811;SDS011;5458;51.496;7.334;2022-08-14T02:10:53;6.57;;;5.85;;
10811;SDS011;5458;51.496;7.334;2022-08-14T02:13:40;5.95;;;5.38;;
10811;SDS011;5458;51.496;7.334;2022-08-14T02:16:08;6.50;;;5.53;;
10811;SDS011;5458;51.496;7.334;2022-08-14T02:18:34;6.85;;;4.97;;
10811;SDS011;5458;51.496;7.334;2022-08-14T02:21:00;6.25;;;5.65;;
10811;SDS011;5458;51.496;7.334;2022-08-14T02:23:28;6.75;;;6.10;;
10811;SDS011;5458;51.496;7.334;2022-08-14T02:25:54;8.70;;;6.40;;
10811;SDS011;5458;51.496;7.334;2022-08-14T02:28:19;6.40;;;5.63;;
10811;SDS011;5458;51.496;7.334;2022-08-14T02:30:45;6.28;;;5.68;;
10811;SDS011;5458;51.496;7.334;2022-08-14T02:33:11;7.70;;;6.00;;
10811;SDS011;5458;51.496;7.334;2022-08-14T02:35:39;6.70;;;6.07;;
10811;SDS011;5458;51.496;7.334;2022-08-14T02:38:08;7.80;;;6.70;;
10811;SDS011;5458;51.496;7.334;2022-08-14T02:40:34;7.25;;;6.05;;
10811;SDS011;5458;51.496;7.334;2022-08-14T02:43:02;5.93;;;5.32;;
10811;SDS011;5458;51.496;7.334;2022-08-14T02:45:28;7.70;;;6.82;;
10811;SDS011;5458;51.496;7.334;2022-08-14T02:47:57;7.25;;;6.55;;
10811;SDS011;5458;51.496;7.334;2022-08-14T02:50:22;6.32;;;5.72;;
10811;SDS011;5458;51.496;7.334;2022-08-14T02:52:48;6.75;;;6.15;;
10811;SDS011;5458;51.496;7.334;2022-08-14T02:55:14;6.70;;;6.00;;
10811;SDS011;5458;51.496;7.334;2022-08-14T02:57:39;7.90;;;6.93;;
10811;SDS011;5458;51.496;7.334;2022-08-14T03:00:07;7.82;;;6.72;;
10811;SDS011;5458;51.496;7.334;2022-08-14T03:02:34;7.35;;;6.65;;
10811;SDS011;5458;51.496;7.334;2022-08-14T03:04:59;8.02;;;7.05;;
10811;SDS011;5458;51.496;7.334;2022-08-14T03:07:25;7.82;;;6.72;;
10811;SDS011;5458;51.496;7.334;2022-08-14T03:09:51;8.27;;;7.30;;
10811;SDS011;5458;51.496;7.334;2022-08-14T03:12:16;7.60;;;6.90;;
10811;SDS011;5458;51.496;7.334;2022-08-14T03:14:42;7.68;;;6.97;;
10811;SDS011;5458;51.496;7.334;2022-08-14T03:17:12;8.38;;;7.00;;
10811;SDS011;5458;51.496;7.334;2022-08-14T03:19:39;8.05;;;7.25;;
10811;SDS011;5458;51.496;7.334;2022-08-14T03:22:04;8.13;;;7.32;;
10811;SDS011;5458;51.496;7.334;2022-08-14T03:24:30;7.35;;;6.65;;
10811;SDS011;5458;51.496;7.334;2022-08-14T03:26:56;9.07;;;7.80;;
10811;SDS011;5458;51.496;7.334;2022-08-14T03:29:22;7.70;;;7.00;;
10811;SDS011;5458;51.496;7.334;2022-08-14T03:31:48;8.65;;;7.72;;
10811;SDS011;5458;51.496;7.334;2022-08-14T03:34:15;8.43;;;7.72;;
10811;SDS011;5458;51.496;7.334;2022-08-14T03:36:41;8.73;;;7.93;;
10811;SDS011;5458;51.496;7.334;2022-08-14T03:39:08;7.85;;;7.15;;
10811;SDS011;5458;51.496;7.334;2022-08-14T03:41:35;7.97;;;7.20;;
10811;SDS011;5458;51.496;7.334;2022-08-14T03:44:02;7.95;;;7.25;;
10811;SDS011;5458;51.496;7.334;2022-08-14T03:46:33;8.50;;;7.70;;
10811;SDS011;5458;51.496;7.334;2022-08-14T03:49:00;7.80;;;7.13;;
10811;SDS011;5458;51.496;7.334;2022-08-14T03:51:29;7.90;;;7.20;;
10811;SDS011;5458;51.496;7.334;2022-08-14T03:53:57;8.80;;;7.63;;
10811;SDS011;5458;51.496;7.334;2022-08-14T03:56:24;9.63;;;7.18;;
10811;SDS011;5458;51.496;7.334;2022-08-14T03:58:51;8.95;;;8.15;;
10811;SDS011;5458;51.496;7.334;2022-08-14T04:01:21;9.02;;;7.82;;
10811;SDS011;5458;51.496;7.334;2022-08-14T04:03:48;7.78;;;7.05;;
10811;SDS011;5458;51.496;7.334;2022-08-14T04:06:16;9.43;;;7.88;;
10811;SDS011;5458;51.496;7.334;2022-08-14T04:08:44;8.65;;;7.85;;
10811;SDS011;5458;51.496;7.334;2022-08-14T04:11:10;8.50;;;7.18;;
10811;SDS011;5458;51.496;7.334;2022-08-14T04:13:37;8.23;;;7.43;;
10811;SDS011;5458;51.496;7.334;2022-08-14T04:16:06;9.23;;;8.13;;
10811;SDS011;5458;51.496;7.334;2022-08-14T04:18:37;8.30;;;7.50;;
10811;SDS011;5458;51.496;7.334;2022-08-14T04:21:05;7.82;;;7.10;;
10811;SDS011;5458;51.496;7.334;2022-08-14T04:23:30;8.63;;;7.82;;
10811;SDS011;5458;51.496;7.334;2022-08-14T04:25:57;8.75;;;7.95;;
10811;SDS011;5458;51.496;7.334;2022-08-14T04:28:23;8.25;;;7.45;;
10811;SDS011;5458;51.496;7.334;2022-08-14T04:30:50;8.00;;;7.30;;
10811;SDS011;5458;51.496;7.334;2022-08-14T04:33:15;8.02;;;7.22;;
10811;SDS011;5458;51.496;7.334;2022-08-14T04:35:41;10.15;;;8.32;;
10811;SDS011;5458;51.496;7.334;2022-08-14T04:38:08;10.75;;;8.23;;
10811;SDS011;5458;51.496;7.334;2022-08-14T04:40:53;8.90;;;8.07;;
10811;SDS011;5458;51.496;7.334;2022-08-14T04:43:38;8.60;;;7.70;;
10811;SDS011;5458;51.496;7.334;2022-08-14T04:46:14;9.23;;;7.65;;
10811;SDS011;5458;51.496;7.334;2022-08-14T04:48:44;11.25;;;7.88;;
10811;SDS011;5458;51.496;7.334;2022-08-14T04:51:11;9.40;;;8.50;;
10811;SDS011;5458;51.496;7.334;2022-08-14T04:53:38;8.77;;;7.97;;
10811;SDS011;5458;51.496;7.334;2022-08-14T04:56:13;9.50;;;8.60;;
10811;SDS011;5458;51.496;7.334;2022-08-14T04:58:40;8.80;;;8.00;;
10811;SDS011;5458;51.496;7.334;2022-08-14T05:01:07;9.27;;;8.38;;
10811;SDS011;5458;51.496;7.334;2022-08-14T05:03:34;9.00;;;8.18;;
10811;SDS011;5458;51.496;7.334;2022-08-14T05:06:03;9.75;;;8.60;;
10811;SDS011;5458;51.496;7.334;2022-08-14T05:08:30;10.55;;;9.02;;
10811;SDS011;5458;51.496;7.334;2022-08-14T05:10:57;9.85;;;8.80;;
10811;SDS011;5458;51.496;7.334;2022-08-14T05:13:25;8.70;;;7.88;;
10811;SDS011;5458;51.496;7.334;2022-08-14T05:15:53;10.43;;;9.43;;
10811;SDS011;5458;51.496;7.334;2022-08-14T05:18:21;10.95;;;9.95;;
10811;SDS011;5458;51.496;7.334;2022-08-14T05:20:52;11.25;;;9.77;;
10811;SDS011;5458;51.496;7.334;2022-08-14T05:23:20;11.40;;;9.65;;
10811;SDS011;5458;51.496;7.334;2022-08-14T05:25:50;10.88;;;9.75;;
10811;SDS011;5458;51.496;7.334;2022-08-14T05:28:23;11.45;;;10.32;;
10811;SDS011;5458;51.496;7.334;2022-08-14T05:30:52;10.75;;;9.60;;
10811;SDS011;5458;51.496;7.334;2022-08-14T05:33:20;11.30;;;10.23;;
10811;SDS011;5458;51.496;7.334;2022-08-14T05:35:48;12.18;;;10.98;;
10811;SDS011;5458;51.496;7.334;2022-08-14T05:38:17;11.15;;;10.15;;
10811;SDS011;5458;51.496;7.334;2022-08-14T05:40:45;11.60;;;10.50;;
10811;SDS011;5458;51.496;7.334;2022-08-14T05:43:12;11.85;;;10.35;;
10811;SDS011;5458;51.496;7.334;2022-08-14T05:45:38;12.70;;;11.45;;
10811;SDS011;5458;51.496;7.334;2022-08-14T05:48:04;12.70;;;11.07;;
10811;SDS011;5458;51.496;7.334;2022-08-14T05:50:31;11.75;;;10.55;;
10811;SDS011;5458;51.496;7.334;2022-08-14T05:52:57;10.82;;;9.77;;
10811;SDS011;5458;51.496;7.334;2022-08-14T05:55:23;10.80;;;9.65;;
10811;SDS011;5458;51.496;7.334;2022-08-14T06:00:17;13.13;;;9.55;;
10811;SDS011;5458;51.496;7.334;2022-08-14T06:02:44;12.73;;;9.40;;
10811;SDS011;5458;51.496;7.334;2022-08-14T06:05:09;10.55;;;9.55;;
10811;SDS011;5458;51.496;7.334;2022-08-14T06:07:35;10.10;;;9.20;;
10811;SDS011;5458;51.496;7.334;2022-08-14T06:10:02;10.00;;;9.10;;
10811;SDS011;5458;51.496;7.334;2022-08-14T06:12:30;10.30;;;9.30;;
10811;SDS011;5458;51.496;7.334;2022-08-14T06:14:56;9.98;;;9.18;;
10811;SDS011;5458;51.496;7.334;2022-08-14T06:17:21;26.27;;;24.83;;
10811;SDS011;5458;51.496;7.334;2022-08-14T06:19:47;449.42;;;430.88;;
10811;SDS011;5458;51.496;7.334;2022-08-14T06:22:12;928.15;;;863.55;;
10811;SDS011;5458;51.496;7.334;2022-08-14T06:24:38;1101.45;;;997.22;;
10811;SDS011;5458;51.496;7.334;2022-08-14T06:27:04;1159.30;;;999.90;;
10811;SDS011;5458;51.496;7.334;2022-08-14T06:29:30;967.15;;;909.40;;
10811;SDS011;5458;51.496;7.334;2022-08-14T06:31:56;780.17;;;744.00;;
10811;SDS011;5458;51.496;7.334;2022-08-14T06:34:22;662.00;;;632.30;;
10811;SDS011;5458;51.496;7.334;2022-08-14T06:36:48;615.08;;;589.15;;
10811;SDS011;5458;51.496;7.334;2022-08-14T06:39:13;646.40;;;618.58;;
10811;SDS011;5458;51.496;7.334;2022-08-14T06:41:39;403.45;;;388.92;;
10811;SDS011;5458;51.496;7.334;2022-08-14T06:44:06;300.20;;;289.73;;
10811;SDS011;5458;51.496;7.334;2022-08-14T06:46:32;216.40;;;209.27;;
10811;SDS011;5458;51.496;7.334;2022-08-14T06:48:58;156.98;;;151.95;;
10811;SDS011;5458;51.496;7.334;2022-08-14T06:51:24;148.10;;;143.30;;
10811;SDS011;5458;51.496;7.334;2022-08-14T06:53:49;256.17;;;247.88;;
10811;SDS011;5458;51.496;7.334;2022-08-14T06:56:15;293.90;;;284.42;;
10811;SDS011;5458;51.496;7.334;2022-08-14T06:58:41;248.10;;;240.02;;
10811;SDS011;5458;51.496;7.334;2022-08-14T07:01:06;231.77;;;224.10;;
10811;SDS011;5458;51.496;7.334;2022-08-14T07:03:50;248.48;;;240.25;;
10811;SDS011;5458;51.496;7.334;2022-08-14T07:06:34;253.57;;;245.20;;
10811;SDS011;5458;51.496;7.334;2022-08-14T07:09:00;339.58;;;328.42;;
10811;SDS011;5458;51.496;7.334;2022-08-14T07:11:26;80.63;;;77.82;;
10811;SDS011;5458;51.496;7.334;2022-08-14T07:13:51;47.83;;;45.90;;
10811;SDS011;5458;51.496;7.334;2022-08-14T07:16:17;40.38;;;38.83;;
10811;SDS011;5458;51.496;7.334;2022-08-14T07:18:43;33.05;;;31.75;;
10811;SDS011;5458;51.496;7.334;2022-08-14T07:21:09;26.45;;;25.15;;
10811;SDS011;5458;51.496;7.334;2022-08-14T07:23:35;27.63;;;26.45;;
10811;SDS011;5458;51.496;7.334;2022-08-14T07:26:02;40.10;;;38.38;;
10811;SDS011;5458;51.496;7.334;2022-08-14T07:28:30;71.50;;;68.97;;
10811;SDS011;5458;51.496;7.334;2022-08-14T07:30:59;57.00;;;54.85;;
10811;SDS011;5458;51.496;7.334;2022-08-14T07:33:28;69.18;;;66.65;;
10811;SDS011;5458;51.496;7.334;2022-08-14T07:35:58;52.60;;;50.45;;
10811;SDS011;5458;51.496;7.334;2022-08-14T07:38:25;65.20;;;62.85;;
10811;SDS011;5458;51.496;7.334;2022-08-14T07:40:51;49.42;;;47.53;;
10811;SDS011;5458;51.496;7.334;2022-08-14T07:43:18;53.92;;;51.85;;
10811;SDS011;5458;51.496;7.334;2022-08-14T07:45:45;46.35;;;44.45;;
10811;SDS011;5458;51.496;7.334;2022-08-14T07:48:11;33.92;;;32.53;;
10811;SDS011;5458;51.496;7.334;2022-08-14T07:50:37;51.40;;;49.47;;
10811;SDS011;5458;51.496;7.334;2022-08-14T07:53:03;44.50;;;42.70;;
10811;SDS011;5458;51.496;7.334;2022-08-14T07:55:30;29.58;;;28.08;;
10811;SDS011;5458;51.496;7.334;2022-08-14T07:57:57;31.27;;;29.90;;
10811;SDS011;5458;51.496;7.334;2022-08-14T08:00:23;24.42;;;23.33;;
10811;SDS011;5458;51.496;7.334;2022-08-14T08:02:51;18.33;;;17.42;;
10811;SDS011;5458;51.496;7.334;2022-08-14T08:05:19;13.23;;;12.25;;
10811;SDS011;5458;51.496;7.334;2022-08-14T08:07:46;12.23;;;11.43;;
10811;SDS011;5458;51.496;7.334;2022-08-14T08:10:14;9.45;;;8.85;;
10811;SDS011;5458;51.496;7.334;2022-08-14T08:13:06;7.57;;;6.97;;
10811;SDS011;5458;51.496;7.334;2022-08-14T08:15:37;7.88;;;7.03;;
10811;SDS011;5458;51.496;7.334;2022-08-14T08:18:06;7.18;;;6.68;;
10811;SDS011;5458;51.496;7.334;2022-08-14T08:20:35;6.93;;;6.32;;
10811;SDS011;5458;51.496;7.334;2022-08-14T08:23:04;7.15;;;6.57;;
10811;SDS011;5458;51.496;7.334;2022-08-14T08:25:31;7.40;;;6.90;;
10811;SDS011;5458;51.496;7.334;2022-08-14T08:28:00;7.13;;;6.57;;
10811;SDS011;5458;51.496;7.334;2022-08-14T08:30:28;8.63;;;7.93;;
10811;SDS011;5458;51.496;7.334;2022-08-14T08:32:56;7.35;;;6.85;;
10811;SDS011;5458;51.496;7.334;2022-08-14T08:35:26;8.65;;;7.95;;
10811;SDS011;5458;51.496;7.334;2022-08-14T08:37:53;7.35;;;6.78;;
10811;SDS011;5458;51.496;7.334;2022-08-14T08:40:29;7.15;;;6.55;;
10811;SDS011;5458;51.496;7.334;2022-08-14T08:43:00;6.55;;;6.13;;
10811;SDS011;5458;51.496;7.334;2022-08-14T08:45:31;7.85;;;7.05;;
10811;SDS011;5458;51.496;7.334;2022-08-14T08:48:01;10.00;;;9.40;;
10811;SDS011;5458;51.496;7.334;2022-08-14T08:50:29;10.65;;;10.05;;
10811;SDS011;5458;51.496;7.334;2022-08-14T08:53:04;12.68;;;11.88;;
10811;SDS011;5458;51.496;7.334;2022-08-14T08:55:38;13.57;;;12.68;;
10811;SDS011;5458;51.496;7.334;2022-08-14T08:58:09;22.60;;;21.55;;
10811;SDS011;5458;51.496;7.334;2022-08-14T09:00:37;35.55;;;34.10;;
10811;SDS011;5458;51.496;7.334;2022-08-14T09:03:06;19.98;;;19.05;;
10811;SDS011;5458;51.496;7.334;2022-08-14T09:05:33;29.17;;;27.75;;
10811;SDS011;5458;51.496;7.334;2022-08-14T09:08:20;21.02;;;19.92;;
10811;SDS011;5458;51.496;7.334;2022-08-14T09:10:49;22.70;;;21.63;;
10811;SDS011;5458;51.496;7.334;2022-08-14T09:13:16;29.48;;;28.08;;
10811;SDS011;5458;51.496;7.334;2022-08-14T09:15:43;28.92;;;27.63;;
10811;SDS011;5458;51.496;7.334;2022-08-14T09:18:11;36.72;;;35.03;;
10811;SDS011;5458;51.496;7.334;2022-08-14T09:20:38;35.67;;;34.10;;
10811;SDS011;5458;51.496;7.334;2022-08-14T09:23:09;29.38;;;28.02;;
10811;SDS011;5458;51.496;7.334;2022-08-14T09:25:36;27.13;;;25.92;;
10811;SDS011;5458;51.496;7.334;2022-08-14T09:28:03;21.92;;;20.58;;
10811;SDS011;5458;51.496;7.334;2022-08-14T09:30:30;27.92;;;26.67;;
10811;SDS011;5458;51.496;7.334;2022-08-14T09:46:34;34.13;;;32.70;;
10811;SDS011;5458;51.496;7.334;2022-08-14T09:49:00;25.92;;;24.77;;
10811;SDS011;5458;51.496;7.334;2022-08-14T09:51:27;28.45;;;27.20;;
10811;SDS011;5458;51.496;7.334;2022-08-14T09:54:04;34.70;;;33.30;;
10811;SDS011;5458;51.496;7.334;2022-08-14T09:56:45;28.20;;;27.10;;
10811;SDS011;5458;51.496;7.334;2022-08-14T09:59:13;17.15;;;16.35;;
10811;SDS011;5458;51.496;7.334;2022-08-14T10:01:41;16.15;;;15.25;;
10811;SDS011;5458;51.496;7.334;2022-08-14T10:04:22;25.77;;;24.65;;
10811;SDS011;5458;51.496;7.334;2022-08-14T10:06:50;18.35;;;17.55;;
10811;SDS011;5458;51.496;7.334;2022-08-14T10:09:16;21.42;;;20.40;;
10811;SDS011;5458;51.496;7.334;2022-08-14T10:11:52;34.65;;;33.28;;
10811;SDS011;5458;51.496;7.334;2022-08-14T10:14:22;15.07;;;14.30;;
10811;SDS011;5458;51.496;7.334;2022-08-14T10:16:50;31.98;;;30.67;;
10811;SDS011;5458;51.496;7.334;2022-08-14T10:19:19;14.60;;;13.93;;
10811;SDS011;5458;51.496;7.334;2022-08-14T10:22:00;24.67;;;23.48;;
10811;SDS011;5458;51.496;7.334;2022-08-14T10:24:52;25.15;;;24.20;;
10811;SDS011;5458;51.496;7.334;2022-08-14T10:27:18;23.45;;;22.35;;
10811;SDS011;5458;51.496;7.334;2022-08-14T10:29:48;18.30;;;17.50;;
10811;SDS011;5458;51.496;7.334;2022-08-14T10:32:16;23.00;;;21.95;;
10811;SDS011;5458;51.496;7.334;2022-08-14T10:34:42;29.55;;;28.33;;
10811;SDS011;5458;51.496;7.334;2022-08-14T10:37:08;22.88;;;21.80;;
10811;SDS011;5458;51.496;7.334;2022-08-14T10:39:36;18.83;;;18.00;;
10811;SDS011;5458;51.496;7.334;2022-08-14T10:42:08;35.72;;;34.15;;
10811;SDS011;5458;51.496;7.334;2022-08-14T10:44:37;33.00;;;31.65;;
10811;SDS011;5458;51.496;7.334;2022-08-14T10:47:05;17.17;;;16.30;;
10811;SDS011;5458;51.496;7.334;2022-08-14T10:49:34;22.42;;;21.50;;
10811;SDS011;5458;51.496;7.334;2022-08-14T10:57:15;32.33;;;31.08;;
10811;SDS011;5458;51.496;7.334;2022-08-14T11:02:17;31.10;;;29.92;;
10811;SDS011;5458;51.496;7.334;2022-08-14T11:10:21;34.03;;;32.63;;
10811;SDS011;5458;51.496;7.334;2022-08-14T11:12:50;56.28;;;54.25;;
10811;SDS011;5458;51.496;7.334;2022-08-14T11:15:21;37.65;;;35.83;;
10811;SDS011;5458;51.496;7.334;2022-08-14T11:17:49;24.92;;;23.83;;
10811;SDS011;5458;51.496;7.334;2022-08-14T11:20:16;35.20;;;33.70;;
10811;SDS011;5458;51.496;7.334;2022-08-14T11:22:44;106.22;;;102.75;;
10811;SDS011;5458;51.496;7.334;2022-08-14T11:25:12;40.40;;;38.83;;
10811;SDS011;5458;51.496;7.334;2022-08-14T11:27:43;33.28;;;31.95;;
10811;SDS011;5458;51.496;7.334;2022-08-14T11:30:11;29.13;;;27.83;;
10811;SDS011;5458;51.496;7.334;2022-08-14T11:32:48;74.82;;;72.05;;
10811;SDS011;5458;51.496;7.334;2022-08-14T11:35:21;66.22;;;63.75;;
10811;SDS011;5458;51.496;7.334;2022-08-14T11:37:49;126.82;;;122.80;;
10811;SDS011;5458;51.496;7.334;2022-08-14T11:40:18;24.45;;;23.42;;
10811;SDS011;5458;51.496;7.334;2022-08-14T11:42:47;25.25;;;24.17;;
10811;SDS011;5458;51.496;7.334;2022-08-14T11:45:14;29.17;;;27.88;;
10811;SDS011;5458;51.496;7.334;2022-08-14T11:47:40;111.90;;;108.05;;
10811;SDS011;5458;51.496;7.334;2022-08-14T11:50:13;85.15;;;82.10;;
10811;SDS011;5458;51.496;7.334;2022-08-14T11:52:47;66.47;;;64.18;;
10811;SDS011;5458;51.496;7.334;2022-08-14T11:55:14;95.70;;;92.55;;
10811;SDS011;5458;51.496;7.334;2022-08-14T11:57:41;105.85;;;102.40;;
10811;SDS011;5458;51.496;7.334;2022-08-14T12:00:08;35.53;;;33.95;;
10811;SDS011;5458;51.496;7.334;2022-08-14T12:02:51;29.33;;;28.13;;
10811;SDS011;5458;51.496;7.334;2022-08-14T12:05:29;72.47;;;69.82;;
10811;SDS011;5458;51.496;7.334;2022-08-14T12:07:59;81.38;;;78.57;;
10811;SDS011;5458;51.496;7.334;2022-08-14T12:10:26;65.05;;;62.65;;
10811;SDS011;5458;51.496;7.334;2022-08-14T12:12:53;125.93;;;121.90;;
10811;SDS011;5458;51.496;7.334;2022-08-14T12:15:32;72.88;;;70.28;;
10811;SDS011;5458;51.496;7.334;2022-08-14T12:17:59;21.88;;;20.88;;
10811;SDS011;5458;51.496;7.334;2022-08-14T12:20:33;76.32;;;73.63;;
10811;SDS011;5458;51.496;7.334;2022-08-14T12:23:06;28.25;;;27.10;;
10811;SDS011;5458;51.496;7.334;2022-08-14T12:25:43;26.95;;;25.65;;
10811;SDS011;5458;51.496;7.334;2022-08-14T12:28:10;60.63;;;58.45;;
10811;SDS011;5458;51.496;7.334;2022-08-14T12:30:37;70.97;;;68.53;;
10811;SDS011;5458;51.496;7.334;2022-08-14T12:35:50;57.80;;;55.60;;
10811;SDS011;5458;51.496;7.334;2022-08-14T12:38:17;69.55;;;66.60;;
10811;SDS011;5458;51.496;7.334;2022-08-14T12:40:50;71.00;;;68.30;;
10811;SDS011;5458;51.496;7.334;2022-08-14T12:43:17;71.88;;;69.28;;
10811;SDS011;5458;51.496;7.334;2022-08-14T12:45:45;49.17;;;47.22;;
10811;SDS011;5458;51.496;7.334;2022-08-14T12:48:18;52.33;;;50.35;;
10811;SDS011;5458;51.496;7.334;2022-08-14T12:50:45;65.95;;;63.60;;
10811;SDS011;5458;51.496;7.334;2022-08-14T12:53:11;85.25;;;82.40;;
10811;SDS011;5458;51.496;7.334;2022-08-14T12:55:38;66.22;;;63.85;;
10811;SDS011;5458;51.496;7.334;2022-08-14T12:58:04;52.90;;;50.90;;
10811;SDS011;5458;51.496;7.334;2022-08-14T13:00:33;65.05;;;62.83;;
10811;SDS011;5458;51.496;7.334;2022-08-14T13:03:01;60.58;;;58.40;;
10811;SDS011;5458;51.496;7.334;2022-08-14T13:05:30;75.05;;;72.22;;
10811;SDS011;5458;51.496;7.334;2022-08-14T13:08:02;53.72;;;51.65;;
10811;SDS011;5458;51.496;7.334;2022-08-14T13:10:32;43.05;;;41.45;;
10811;SDS011;5458;51.496;7.334;2022-08-14T13:12:58;56.28;;;54.28;;
10811;SDS011;5458;51.496;7.334;2022-08-14T13:15:24;50.05;;;48.20;;
10811;SDS011;5458;51.496;7.334;2022-08-14T13:17:51;78.47;;;75.78;;
10811;SDS011;5458;51.496;7.334;2022-08-14T13:20:21;72.47;;;69.97;;
10811;SDS011;5458;51.496;7.334;2022-08-14T13:22:48;86.93;;;83.78;;
10811;SDS011;5458;51.496;7.334;2022-08-14T13:25:18;115.50;;;111.65;;
10811;SDS011;5458;51.496;7.334;2022-08-14T13:27:46;41.75;;;40.17;;
10811;SDS011;5458;51.496;7.334;2022-08-14T13:30:14;41.40;;;39.80;;
10811;SDS011;5458;51.496;7.334;2022-08-14T13:32:42;37.88;;;36.47;;
10811;SDS011;5458;51.496;7.334;2022-08-14T13:35:13;40.80;;;39.30;;
10811;SDS011;5458;51.496;7.334;2022-08-14T13:37:41;24.45;;;23.45;;
10811;SDS011;5458;51.496;7.334;2022-08-14T13:40:09;23.48;;;22.30;;
10811;SDS011;5458;51.496;7.334;2022-08-14T13:42:38;23.92;;;22.95;;
10811;SDS011;5458;51.496;7.334;2022-08-14T13:45:08;30.80;;;29.63;;
10811;SDS011;5458;51.496;7.334;2022-08-14T13:47:35;51.05;;;49.05;;
10811;SDS011;5458;51.496;7.334;2022-08-14T13:50:02;25.55;;;24.50;;
10811;SDS011;5458;51.496;7.334;2022-08-14T13:52:32;34.80;;;33.42;;
10811;SDS011;5458;51.496;7.334;2022-08-14T13:55:04;34.42;;;32.97;;
10811;SDS011;5458;51.496;7.334;2022-08-14T13:57:31;34.60;;;33.13;;
10811;SDS011;5458;51.496;7.334;2022-08-14T14:00:00;34.83;;;33.42;;
10811;SDS011;5458;51.496;7.334;2022-08-14T14:02:32;61.83;;;59.65;;
10811;SDS011;5458;51.496;7.334;2022-08-14T14:05:01;92.68;;;89.53;;
10811;SDS011;5458;51.496;7.334;2022-08-14T14:07:28;90.05;;;86.97;;
10811;SDS011;5458;51.496;7.334;2022-08-14T14:09:55;95.97;;;92.70;;
10811;SDS011;5458;51.496;7.334;2022-08-14T14:12:22;67.65;;;65.32;;
10811;SDS011;5458;51.496;7.334;2022-08-14T14:14:49;23.88;;;22.77;;
10811;SDS011;5458;51.496;7.334;2022-08-14T14:17:16;89.57;;;86.57;;
10811;SDS011;5458;51.496;7.334;2022-08-14T14:19:48;36.33;;;34.90;;
10811;SDS011;5458;51.496;7.334;2022-08-14T14:22:15;23.52;;;22.60;;
10811;SDS011;5458;51.496;7.334;2022-08-14T14:24:41;45.85;;;44.00;;
10811;SDS011;5458;51.496;7.334;2022-08-14T14:27:09;30.23;;;29.00;;
10811;SDS011;5458;51.496;7.334;2022-08-14T14:29:36;23.75;;;22.73;;
10811;SDS011;5458;51.496;7.334;2022-08-14T14:32:03;28.88;;;27.67;;
10811;SDS011;5458;51.496;7.334;2022-08-14T14:34:29;27.85;;;26.67;;
10811;SDS011;5458;51.496;7.334;2022-08-14T14:36:58;50.08;;;48.13;;
10811;SDS011;5458;51.496;7.334;2022-08-14T14:39:28;68.65;;;66.25;;
10811;SDS011;5458;51.496;7.334;2022-08-14T14:41:56;43.85;;;42.03;;
10811;SDS011;5458;51.496;7.334;2022-08-14T14:44:26;26.13;;;25.08;;
10811;SDS011;5458;51.496;7.334;2022-08-14T14:46:58;99.57;;;96.28;;
10811;SDS011;5458;51.496;7.334;2022-08-14T14:49:25;53.70;;;51.72;;
10811;SDS011;5458;51.496;7.334;2022-08-14T14:51:53;72.32;;;69.88;;
10811;SDS011;5458;51.496;7.334;2022-08-14T14:54:22;63.55;;;61.35;;
10811;SDS011;5458;51.496;7.334;2022-08-14T14:56:48;94.68;;;91.53;;
10811;SDS011;5458;51.496;7.334;2022-08-14T14:59:15;62.40;;;60.20;;
10811;SDS011;5458;51.496;7.334;2022-08-14T15:01:42;49.45;;;47.67;;
10811;SDS011;5458;51.496;7.334;2022-08-14T15:04:14;89.88;;;86.93;;
10811;SDS011;5458;51.496;7.334;2022-08-14T15:06:40;46.60;;;44.90;;
10811;SDS011;5458;51.496;7.334;2022-08-14T15:09:06;49.45;;;47.70;;
10811;SDS011;5458;51.496;7.334;2022-08-14T15:11:32;46.88;;;45.20;;
10811;SDS011;5458;51.496;7.334;2022-08-14T15:14:00;43.78;;;42.17;;
10811;SDS011;5458;51.496;7.334;2022-08-14T15:16:26;41.30;;;39.80;;
10811;SDS011;5458;51.496;7.334;2022-08-14T15:18:52;48.28;;;46.53;;
10811;SDS011;5458;51.496;7.334;2022-08-14T15:21:17;41.97;;;40.38;;